Saint Pete Beach, Florida
Current Conditions -  °F | °C
As of 5:53 PM on Friday 28 Nov 2014 (Local Time) from KSPG Reporting Station
Clear Clear  
Wind Chill: 60°   Ceiling: Unl
Heat Index: 60°   Visibility: 10mi
Dew Point: 38°   Wind: 12mph
Humidity: 44%   Direction: 60°ENE
Pressure: 30.25"   Gusts: NA
Location:  27.7562°N, 82.7184°W
Report Text: KSPG 282253Z AUTO 06010KT 10SM CLR 16/03 A3025 RMK AO2 SLP243 T01560033
Loading
Personal Weather Stations






























Interactive Weather Map New forecast layout! Learn more

10-Day Weather Forecast

Advertisements
Track Severe Weather on mobile